createdAt,value
2019-04-03T00:02:44.098Z,9.27
2019-04-03T00:07:46.804Z,9.80
2019-04-03T00:12:49.505Z,9.57
2019-04-03T00:17:52.207Z,9.10
2019-04-03T00:22:54.929Z,9.17
2019-04-03T00:27:57.661Z,8.80
2019-04-03T00:33:00.365Z,8.77
2019-04-03T00:38:03.066Z,9.13
2019-04-03T00:43:05.755Z,7.90
2019-04-03T00:48:08.441Z,9.70
2019-04-03T00:53:11.139Z,9.93
2019-04-03T00:58:37.320Z,9.10
2019-04-03T01:03:47.306Z,8.97
2019-04-03T01:08:50.001Z,8.90
2019-04-03T01:13:52.712Z,9.93
2019-04-03T01:18:55.413Z,9.97
2019-04-03T01:23:58.118Z,9.33
2019-04-03T01:29:00.824Z,9.40
2019-04-03T01:34:03.609Z,10.50
2019-04-03T01:39:06.939Z,9.30
2019-04-03T01:44:09.752Z,10.00
2019-04-03T01:49:13.491Z,9.00
2019-04-03T01:54:16.265Z,9.13
2019-04-03T01:59:18.991Z,10.00
2019-04-03T02:04:21.764Z,9.33
2019-04-03T02:09:25.631Z,9.87
2019-04-03T02:14:28.405Z,8.90
2019-04-03T02:19:31.099Z,9.70
2019-04-03T02:24:33.857Z,10.17
2019-04-03T02:29:37.971Z,9.77
2019-04-03T02:34:41.297Z,9.43
2019-04-03T02:39:44.005Z,9.67
2019-04-03T02:44:48.370Z,8.67
2019-04-03T02:49:51.375Z,10.40
2019-04-03T02:54:54.096Z,9.37
2019-04-03T02:59:58.777Z,10.77
2019-04-03T03:05:02.258Z,10.27
2019-04-03T03:10:05.977Z,11.17
2019-04-03T03:15:11.934Z,10.20
2019-04-03T03:20:17.699Z,9.63
2019-04-03T03:25:20.502Z,10.33
2019-04-03T03:30:42.711Z,9.10
2019-04-03T03:35:34.709Z,9.97
2019-04-03T03:40:35.371Z,9.60
2019-04-03T03:45:38.307Z,10.00
2019-04-03T03:50:41.576Z,17.10
2019-04-03T03:55:45.033Z,10.23
2019-04-03T04:00:51.670Z,9.57
2019-04-03T04:05:55.602Z,10.57
2019-04-03T04:11:00.444Z,9.40
2019-04-03T04:16:04.835Z,10.57
2019-04-03T04:21:10.790Z,10.73
2019-04-03T04:26:13.163Z,9.50
2019-04-03T04:31:16.082Z,12.20
2019-04-03T04:36:18.907Z,12.47
2019-04-03T04:41:22.099Z,10.70
2019-04-03T04:46:24.910Z,11.70
2019-04-03T04:51:27.689Z,10.40
2019-04-03T04:56:30.385Z,10.30
2019-04-03T05:01:33.506Z,11.70
2019-04-03T05:06:36.764Z,11.63
2019-04-03T05:11:39.503Z,12.07
2019-04-03T05:16:42.261Z,12.30
2019-04-03T05:21:44.955Z,11.53
2019-04-03T05:26:47.656Z,12.77
2019-04-03T05:31:50.416Z,12.50
2019-04-03T05:36:53.112Z,12.33
2019-04-03T05:41:58.600Z,11.40
2019-04-03T05:47:00.618Z,12.20
2019-04-03T05:52:04.608Z,11.80
2019-04-03T05:57:07.552Z,13.07
2019-04-03T06:02:16.116Z,11.47
2019-04-03T06:07:17.434Z,12.57
2019-04-03T06:12:19.798Z,10.37
2019-04-03T06:17:22.593Z,12.07
2019-04-03T06:22:25.299Z,11.37
2019-04-03T06:27:28.157Z,10.67
2019-04-03T06:32:31.108Z,11.47
2019-04-03T06:37:33.844Z,11.10
2019-04-03T06:42:36.535Z,11.10
2019-04-03T06:47:39.239Z,11.47
2019-04-03T06:52:42.074Z,11.30
2019-04-03T06:57:44.783Z,11.13
2019-04-03T07:02:47.671Z,17.67
2019-04-03T07:07:50.397Z,15.80
2019-04-03T07:12:53.083Z,13.53
2019-04-03T07:17:55.773Z,12.30
2019-04-03T07:22:59.319Z,13.47
2019-04-03T07:28:02.186Z,14.00
2019-04-03T07:33:05.747Z,13.17
2019-04-03T07:38:09.113Z,12.03
2019-04-03T07:43:11.849Z,12.67
2019-04-03T07:48:14.537Z,12.70
2019-04-03T07:53:17.803Z,13.50
2019-04-03T07:58:25.020Z,13.87
2019-04-03T08:03:26.650Z,16.40
2019-04-03T08:08:29.377Z,16.50
2019-04-03T08:13:32.089Z,17.60
2019-04-03T08:18:34.787Z,17.30
2019-04-03T08:23:37.685Z,15.27
2019-04-03T08:28:40.422Z,18.07
2019-04-03T08:33:43.122Z,20.20
2019-04-03T12:28:55.871Z,8.73
2019-04-03T12:34:04.180Z,8.93
2019-04-03T12:39:09.613Z,8.60
2019-04-03T12:44:12.398Z,8.27
2019-04-03T12:49:15.076Z,8.93
2019-04-03T12:54:20.133Z,8.90
2019-04-03T12:59:22.689Z,13.53
2019-04-03T13:04:26.513Z,13.00
2019-04-03T13:09:30.192Z,10.30
2019-04-03T13:14:33.982Z,10.20
2019-04-03T13:19:37.583Z,11.27
2019-04-03T13:24:40.588Z,13.17
2019-04-03T13:29:43.636Z,12.27
2019-04-03T13:34:46.494Z,11.90
2019-04-03T13:39:49.412Z,9.83
2019-04-03T13:44:52.203Z,11.27
2019-04-03T13:49:55.303Z,10.30
2019-04-03T13:54:59.292Z,9.87
2019-04-03T14:00:16.692Z,11.00
2019-04-03T14:05:07.568Z,9.90
2019-04-03T14:10:11.206Z,11.30
2019-04-03T14:15:13.903Z,11.70
2019-04-03T14:20:17.651Z,10.30
2019-04-03T14:25:22.548Z,10.80
2019-04-03T14:30:24.955Z,9.60
2019-04-03T14:35:47.392Z,10.17
2019-04-03T14:40:32.427Z,10.73
2019-04-03T14:45:36.355Z,9.07
2019-04-03T14:50:39.783Z,9.07
2019-04-03T14:55:48.928Z,8.70
2019-04-03T15:00:48.613Z,9.33
2019-04-03T15:05:51.724Z,9.00
2019-04-03T15:10:54.553Z,10.80
2019-04-03T15:16:00.363Z,10.37
2019-04-03T15:21:02.036Z,10.37
2019-04-03T15:26:04.747Z,9.90
2019-04-03T15:31:07.731Z,11.57
2019-04-03T15:36:10.625Z,11.80
2019-04-03T15:41:13.320Z,9.47
2019-04-03T15:46:16.225Z,10.37
2019-04-03T15:51:19.340Z,9.50
2019-04-03T15:56:22.411Z,9.40
2019-04-03T16:01:25.470Z,10.37
2019-04-03T16:06:28.357Z,9.60
2019-04-03T16:11:31.324Z,11.20
2019-04-03T16:16:34.103Z,8.50
2019-04-03T16:21:37.046Z,9.20
2019-04-03T16:26:40.248Z,9.17
2019-04-03T16:31:43.388Z,9.40
2019-04-03T16:36:49.164Z,9.60
2019-04-03T16:41:50.905Z,9.13
2019-04-03T16:46:53.685Z,10.50
2019-04-03T16:51:56.377Z,10.00
2019-04-03T16:57:00.413Z,9.20
2019-04-03T17:02:04.187Z,11.50
2019-04-03T17:07:06.893Z,9.73
2019-04-03T17:12:09.670Z,16.70
2019-04-03T17:17:14.056Z,9.90
2019-04-03T17:22:17.025Z,10.77
2019-04-03T17:27:19.859Z,10.17
2019-04-03T17:32:22.630Z,10.93
2019-04-03T17:37:27.107Z,12.60
2019-04-03T17:42:30.591Z,16.23
2019-04-03T17:47:33.291Z,12.30
2019-04-03T17:52:36.915Z,12.97
2019-04-03T17:57:40.131Z,11.93
2019-04-03T18:02:42.903Z,11.90
2019-04-03T18:07:45.593Z,13.73
2019-04-03T18:12:50.246Z,16.00
2019-04-03T18:17:53.113Z,12.17
2019-04-03T18:22:55.842Z,12.63
2019-04-03T18:27:58.615Z,14.57
2019-04-03T18:33:01.308Z,11.80
2019-04-03T18:38:04.003Z,13.90
2019-04-03T18:43:06.708Z,12.27
2019-04-03T18:48:09.446Z,12.57
2019-04-03T18:53:12.149Z,13.73
2019-04-03T18:58:14.905Z,12.73
2019-04-03T19:03:17.612Z,13.47
2019-04-03T19:08:20.291Z,12.47
2019-04-03T19:13:23.036Z,11.87
2019-04-03T19:18:25.732Z,13.50
2019-04-03T19:23:28.427Z,14.03
2019-04-03T19:28:31.114Z,14.80
2019-04-03T19:33:33.922Z,14.07
2019-04-03T19:38:36.666Z,14.80
2019-04-03T19:43:39.353Z,13.67
2019-04-03T19:48:42.059Z,14.70
2019-04-03T19:53:49.289Z,14.50
2019-04-03T19:58:49.371Z,15.97
2019-04-03T20:03:52.083Z,14.73
2019-04-03T20:08:54.775Z,15.83
2019-04-03T20:13:57.464Z,15.33
2019-04-03T20:19:00.147Z,14.00
2019-04-03T20:24:02.850Z,14.70
2019-04-03T20:29:05.534Z,14.43
2019-04-03T20:34:08.228Z,15.10
2019-04-03T20:39:10.927Z,14.73
2019-04-03T20:44:16.674Z,12.97
2019-04-03T20:49:18.221Z,7.43
2019-04-03T20:54:21.347Z,7.80
2019-04-03T20:59:24.726Z,9.10
2019-04-03T21:04:27.439Z,9.10
2019-04-03T21:09:30.588Z,8.60
2019-04-03T21:14:33.416Z,7.07
2019-04-03T21:19:36.118Z,7.10
2019-04-03T21:24:38.919Z,7.40
2019-04-03T21:29:41.622Z,7.60
2019-04-03T21:34:44.502Z,8.17
2019-04-03T21:39:47.187Z,7.83
2019-04-03T21:44:49.874Z,7.73
2019-04-03T21:49:52.573Z,9.27
2019-04-03T21:54:55.270Z,9.23
2019-04-03T21:59:57.976Z,8.40
2019-04-03T22:05:00.658Z,9.40
2019-04-03T22:10:04.325Z,9.00
2019-04-03T22:15:07.313Z,8.73
2019-04-03T22:20:10.495Z,9.80
2019-04-03T22:25:13.194Z,9.50
2019-04-03T22:30:15.866Z,9.20
2019-04-03T22:35:18.559Z,9.87
2019-04-03T22:40:21.243Z,11.47
2019-04-03T22:45:23.920Z,10.40
2019-04-03T22:50:26.614Z,10.60
2019-04-03T22:55:29.287Z,11.60
2019-04-03T23:00:32.120Z,11.17
2019-04-03T23:05:34.972Z,12.50
2019-04-03T23:10:37.744Z,13.17
2019-04-03T23:15:40.443Z,11.97
2019-04-03T23:20:43.154Z,12.13
2019-04-03T23:25:45.843Z,11.07
2019-04-03T23:30:49.002Z,11.67
2019-04-03T23:35:51.689Z,12.73
2019-04-03T23:40:54.369Z,11.60
2019-04-03T23:45:57.061Z,12.10
2019-04-03T23:50:59.748Z,12.80
2019-04-03T23:56:02.432Z,13.20
